Maran Gas Agamemnon — SVCH6 — position and weather

sailwx.info

Track history (hours):
 
Tides and Currents Weather Stations Pressure Air Temp Water Temp Dewpoint Dewpoint Depression Visibility Wind Speed Wind Dir Waves Ship Positions

Maran Gas Agamemnon

Last reported at 2018-Jun-04 22:53 UTC. Time now 2018-Jun-21 10:11 UTC.
Position N 29°09' W 093°40'.
Warning: this ship's position is 16 days out of date.

Length 290 m; draft 11.2 m.

Type: Tanker. MMSI: 241405000.

Date/timePositionNaut miles runAvg speedWind from/ knotsBaromVisibWave heightAir tempDewpointWater temp
2018-Jun-04 22:53N 29°09' W 093°40'1312.1
2018-Jun-04 21:51N 29°22' W 093°39'410.2
2018-Jun-04 21:30N 29°25' W 093°40'5 9.5
2018-Jun-04 20:58N 29°30' W 093°41'612.1
2018-Jun-04 20:30N 29°34' W 093°46'611.2
2018-Jun-04 20:00N 29°39' W 093°49'5 9.4
2018-Jun-04 19:30N 29°43' W 093°51'2 3.6
2018-Jun-04 19:00N 29°45' W 093°52'0 0.0
2018-Jun-04 18:29N 29°45' W 093°52'0 0.0
2018-Jun-04 17:59N 29°45' W 093°52'0 0.0
2018-Jun-04 17:29N 29°45' W 093°52'0 0.0
2018-Jun-04 16:59N 29°45' W 093°52'0 0.0
2018-Jun-04 16:29N 29°45' W 093°52'0 0.0
2018-Jun-04 15:59N 29°45' W 093°52'0 0.0
2018-Jun-04 15:29N 29°45' W 093°52'0 0.0
2018-Jun-04 14:59N 29°45' W 093°52'0 0.0
2018-Jun-04 14:29N 29°45' W 093°52'0 0.0
2018-Jun-04 13:59N 29°45' W 093°52'0 0.0
2018-Jun-04 13:29N 29°45' W 093°52'0 0.0
2018-Jun-04 12:59N 29°45' W 093°52'0 0.0
2018-Jun-04 12:29N 29°45' W 093°52'0 0.0
2018-Jun-04 11:59N 29°45' W 093°52'0 0.0
2018-Jun-04 11:29N 29°45' W 093°52'0 0.0
2018-Jun-04 10:59N 29°45' W 093°52'0 0.0
2018-Jun-04 10:26N 29°45' W 093°52'0 0.0
2018-Jun-04 09:59N 29°45' W 093°52'0 0.0
2018-Jun-04 09:29N 29°45' W 093°52'0 0.0
2018-Jun-04 08:59N 29°45' W 093°52'0 0.0
2018-Jun-04 08:29N 29°45' W 093°52'0 0.0
2018-Jun-04 07:59N 29°45' W 093°52'0 0.0
2018-Jun-04 07:29N 29°45' W 093°52'0 0.0
2018-Jun-04 06:59N 29°45' W 093°52'0 0.0
2018-Jun-04 06:29N 29°45' W 093°52'0 0.0
2018-Jun-04 05:59N 29°45' W 093°52'0 0.0
2018-Jun-04 05:29N 29°45' W 093°52'0 0.0
2018-Jun-04 04:59N 29°45' W 093°52'0 0.0
2018-Jun-04 04:29N 29°45' W 093°52'0 0.0
2018-Jun-04 03:59N 29°45' W 093°52'0 0.0
2018-Jun-04 03:29N 29°45' W 093°52'0 0.0
2018-Jun-04 02:59N 29°45' W 093°52'0 0.0
2018-Jun-04 02:29N 29°45' W 093°52'0 0.0
2018-Jun-04 01:59N 29°45' W 093°52'0 0.0
2018-Jun-04 01:29N 29°45' W 093°52'0 0.0
2018-Jun-04 00:59N 29°45' W 093°52'0 0.0
2018-Jun-04 00:29N 29°45' W 093°52'0 0.0
2018-Jun-03 23:59N 29°45' W 093°52'0 0.0
2018-Jun-03 23:29N 29°45' W 093°52'0 0.0
2018-Jun-03 22:59N 29°45' W 093°52'0 0.0
2018-Jun-03 22:29N 29°45' W 093°52'0 0.0
2018-Jun-03 21:56N 29°45' W 093°52'0 0.0
2018-Jun-03 21:29N 29°45' W 093°52'0 0.0
2018-Jun-03 20:59N 29°45' W 093°52'0 0.0
2018-Jun-03 20:29N 29°45' W 093°52'0 0.0
2018-Jun-03 19:59N 29°45' W 093°52'0 0.0
2018-Jun-03 19:26N 29°45' W 093°52'0 0.0
2018-Jun-03 18:59N 29°45' W 093°52'0 0.0
2018-Jun-03 18:29N 29°45' W 093°52'0 0.0
2018-Jun-03 17:59N 29°45' W 093°52'0 0.0
2018-Jun-03 17:29N 29°45' W 093°52'0 0.0
2018-Jun-03 16:59N 29°45' W 093°52'0 0.0
2018-Jun-03 16:29N 29°45' W 093°52'0 0.0
2018-Jun-03 15:59N 29°45' W 093°52'0 0.0
2018-Jun-03 15:26N 29°45' W 093°52'0 0.0
2018-Jun-03 14:59N 29°45' W 093°52'0 0.0
2018-Jun-03 14:29N 29°45' W 093°52'0 0.0
2018-Jun-03 13:59N 29°45' W 093°52'0 0.0
2018-Jun-03 13:30N 29°45' W 093°52'1 2.5
2018-Jun-03 13:00N 29°43' W 093°52'4 8.7
2018-Jun-03 12:31N 29°40' W 093°50'611.5
2018-Jun-03 12:00N 29°34' W 093°47'612.0
2018-Jun-03 11:30N 29°30' W 093°42'511.0
2018-Jun-03 11:00N 29°25' W 093°40'3 5.8
2018-Jun-03 10:30N 29°22' W 093°39'2 4.9
2018-Jun-03 10:00N 29°20' W 093°39'3 6.4
2018-Jun-03 09:30N 29°17' W 093°39'4 6.9
2018-Jun-03 08:59N 29°13' W 093°39'4 8.1
2018-Jun-03 08:29N 29°09' W 093°40'3811.5
2018-Jun-03 05:11N 28°38' W 093°14'312.5
2018-Jun-03 04:55N 28°35' W 093°12'613.3
2018-Jun-03 04:29N 28°31' W 093°08'  
2018-May-29 02:12N 09°43' W 079°57'3 6.5
2018-May-29 01:47N 09°40' W 079°57'5 6.6
2018-May-29 00:58N 09°35' W 079°57'3 6.5
2018-May-29 00:30N 09°32' W 079°56'4 8.0
2018-May-29 00:01N 09°28' W 079°55'5 9.2
2018-May-28 23:30N 09°23' W 079°55'4 7.3
2018-May-28 23:00N 09°20' W 079°55'3 4.9
2018-May-28 22:22N 09°17' W 079°55'0 0.7
2018-May-28 21:58N 09°16' W 079°55'0 0.4
2018-May-28 21:28N 09°16' W 079°55'0 0.2
2018-May-28 20:16N 09°16' W 079°55'1 1.3
2018-May-28 19:52N 09°15' W 079°55'1 2.6
2018-May-28 19:29N 09°15' W 079°55'2 5.1
2018-May-28 19:00N 09°12' W 079°54'  
Track history (hours):
 
Tides and Currents Weather Stations Pressure Air Temp Water Temp Dewpoint Dewpoint Depression Visibility Wind Speed Wind Dir Waves Ship Positions

Maran Gas Agamemnon

Last reported at 2018-Jun-04 22:53 UTC. Time now 2018-Jun-21 10:11 UTC.
Position N 29°09' W 093°40'.
Warning: this ship's position is 16 days out of date.

Length 290 m; draft 11.2 m.

Type: Tanker. MMSI: 241405000.

Date/timePositionNaut miles runAvg speedWind from/ knotsBaromVisibWave heightAir tempDewpointWater temp
2018-Jun-04 22:53N 29°09' W 093°40'1312.1
2018-Jun-04 21:51N 29°22' W 093°39'410.2
2018-Jun-04 21:30N 29°25' W 093°40'5 9.5
2018-Jun-04 20:58N 29°30' W 093°41'612.1
2018-Jun-04 20:30N 29°34' W 093°46'611.2
2018-Jun-04 20:00N 29°39' W 093°49'5 9.4
2018-Jun-04 19:30N 29°43' W 093°51'2 3.6
2018-Jun-04 19:00N 29°45' W 093°52'0 0.0
2018-Jun-04 18:29N 29°45' W 093°52'0 0.0
2018-Jun-04 17:59N 29°45' W 093°52'0 0.0
2018-Jun-04 17:29N 29°45' W 093°52'0 0.0
2018-Jun-04 16:59N 29°45' W 093°52'0 0.0
2018-Jun-04 16:29N 29°45' W 093°52'0 0.0
2018-Jun-04 15:59N 29°45' W 093°52'0 0.0
2018-Jun-04 15:29N 29°45' W 093°52'0 0.0
2018-Jun-04 14:59N 29°45' W 093°52'0 0.0
2018-Jun-04 14:29N 29°45' W 093°52'0 0.0
2018-Jun-04 13:59N 29°45' W 093°52'0 0.0
2018-Jun-04 13:29N 29°45' W 093°52'0 0.0
2018-Jun-04 12:59N 29°45' W 093°52'0 0.0
2018-Jun-04 12:29N 29°45' W 093°52'0 0.0
2018-Jun-04 11:59N 29°45' W 093°52'0 0.0
2018-Jun-04 11:29N 29°45' W 093°52'0 0.0
2018-Jun-04 10:59N 29°45' W 093°52'0 0.0
2018-Jun-04 10:26N 29°45' W 093°52'0 0.0
2018-Jun-04 09:59N 29°45' W 093°52'0 0.0
2018-Jun-04 09:29N 29°45' W 093°52'0 0.0
2018-Jun-04 08:59N 29°45' W 093°52'0 0.0
2018-Jun-04 08:29N 29°45' W 093°52'0 0.0
2018-Jun-04 07:59N 29°45' W 093°52'0 0.0
2018-Jun-04 07:29N 29°45' W 093°52'0 0.0
2018-Jun-04 06:59N 29°45' W 093°52'0 0.0
2018-Jun-04 06:29N 29°45' W 093°52'0 0.0
2018-Jun-04 05:59N 29°45' W 093°52'0 0.0
2018-Jun-04 05:29N 29°45' W 093°52'0 0.0
2018-Jun-04 04:59N 29°45' W 093°52'0 0.0
2018-Jun-04 04:29N 29°45' W 093°52'0 0.0
2018-Jun-04 03:59N 29°45' W 093°52'0 0.0
2018-Jun-04 03:29N 29°45' W 093°52'0 0.0
2018-Jun-04 02:59N 29°45' W 093°52'0 0.0
2018-Jun-04 02:29N 29°45' W 093°52'0 0.0
2018-Jun-04 01:59N 29°45' W 093°52'0 0.0
2018-Jun-04 01:29N 29°45' W 093°52'0 0.0
2018-Jun-04 00:59N 29°45' W 093°52'0 0.0
2018-Jun-04 00:29N 29°45' W 093°52'0 0.0
2018-Jun-03 23:59N 29°45' W 093°52'0 0.0
2018-Jun-03 23:29N 29°45' W 093°52'0 0.0
2018-Jun-03 22:59N 29°45' W 093°52'0 0.0
2018-Jun-03 22:29N 29°45' W 093°52'0 0.0
2018-Jun-03 21:56N 29°45' W 093°52'0 0.0
2018-Jun-03 21:29N 29°45' W 093°52'0 0.0
2018-Jun-03 20:59N 29°45' W 093°52'0 0.0
2018-Jun-03 20:29N 29°45' W 093°52'0 0.0
2018-Jun-03 19:59N 29°45' W 093°52'0 0.0
2018-Jun-03 19:26N 29°45' W 093°52'0 0.0
2018-Jun-03 18:59N 29°45' W 093°52'0 0.0
2018-Jun-03 18:29N 29°45' W 093°52'0 0.0
2018-Jun-03 17:59N 29°45' W 093°52'0 0.0
2018-Jun-03 17:29N 29°45' W 093°52'0 0.0
2018-Jun-03 16:59N 29°45' W 093°52'0 0.0
2018-Jun-03 16:29N 29°45' W 093°52'0 0.0
2018-Jun-03 15:59N 29°45' W 093°52'0 0.0
2018-Jun-03 15:26N 29°45' W 093°52'0 0.0
2018-Jun-03 14:59N 29°45' W 093°52'0 0.0
2018-Jun-03 14:29N 29°45' W 093°52'0 0.0
2018-Jun-03 13:59N 29°45' W 093°52'0 0.0
2018-Jun-03 13:30N 29°45' W 093°52'1 2.5
2018-Jun-03 13:00N 29°43' W 093°52'4 8.7
2018-Jun-03 12:31N 29°40' W 093°50'611.5
2018-Jun-03 12:00N 29°34' W 093°47'612.0
2018-Jun-03 11:30N 29°30' W 093°42'511.0
2018-Jun-03 11:00N 29°25' W 093°40'3 5.8
2018-Jun-03 10:30N 29°22' W 093°39'2 4.9
2018-Jun-03 10:00N 29°20' W 093°39'3 6.4
2018-Jun-03 09:30N 29°17' W 093°39'4 6.9
2018-Jun-03 08:59N 29°13' W 093°39'4 8.1
2018-Jun-03 08:29N 29°09' W 093°40'3811.5
2018-Jun-03 05:11N 28°38' W 093°14'312.5
2018-Jun-03 04:55N 28°35' W 093°12'613.3
2018-Jun-03 04:29N 28°31' W 093°08'  
2018-May-29 02:12N 09°43' W 079°57'3 6.5
2018-May-29 01:47N 09°40' W 079°57'5 6.6
2018-May-29 00:58N 09°35' W 079°57'3 6.5
2018-May-29 00:30N 09°32' W 079°56'4 8.0
2018-May-29 00:01N 09°28' W 079°55'5 9.2
2018-May-28 23:30N 09°23' W 079°55'4 7.3
2018-May-28 23:00N 09°20' W 079°55'3 4.9
2018-May-28 22:22N 09°17' W 079°55'0 0.7
2018-May-28 21:58N 09°16' W 079°55'0 0.4
2018-May-28 21:28N 09°16' W 079°55'0 0.2
2018-May-28 20:16N 09°16' W 079°55'1 1.3
2018-May-28 19:52N 09°15' W 079°55'1 2.6
2018-May-28 19:29N 09°15' W 079°55'2 5.1
2018-May-28 19:00N 09°12' W 079°54'  

Dump ship's entire track history